sensor_id;sensor_type;location;lat;lon;timestamp;temperature;humidity
65995;HTU21D;52764;51.036;5.852;2023-07-20T00:01:22;21.50;62.37
65995;HTU21D;52764;51.036;5.852;2023-07-20T00:03:47;21.47;62.58
65995;HTU21D;52764;51.036;5.852;2023-07-20T00:06:24;21.44;62.71
65995;HTU21D;52764;51.036;5.852;2023-07-20T00:08:51;21.44;62.80
65995;HTU21D;52764;51.036;5.852;2023-07-20T00:11:17;21.38;63.08
65995;HTU21D;52764;51.036;5.852;2023-07-20T00:13:42;21.36;63.21
65995;HTU21D;52764;51.036;5.852;2023-07-20T00:16:08;21.34;63.29
65995;HTU21D;52764;51.036;5.852;2023-07-20T00:18:34;21.24;63.51
65995;HTU21D;52764;51.036;5.852;2023-07-20T00:20:59;21.14;63.72
65995;HTU21D;52764;51.036;5.852;2023-07-20T00:23:26;21.05;64.01
65995;HTU21D;52764;51.036;5.852;2023-07-20T00:25:52;20.98;64.33
65995;HTU21D;52764;51.036;5.852;2023-07-20T00:28:17;20.91;64.53
65995;HTU21D;52764;51.036;5.852;2023-07-20T00:30:43;20.88;64.65
65995;HTU21D;52764;51.036;5.852;2023-07-20T00:33:11;20.86;64.90
65995;HTU21D;52764;51.036;5.852;2023-07-20T00:35:38;20.85;65.08
65995;HTU21D;52764;51.036;5.852;2023-07-20T00:38:04;20.79;64.58
65995;HTU21D;52764;51.036;5.852;2023-07-20T00:40:40;20.74;65.76
65995;HTU21D;52764;51.036;5.852;2023-07-20T00:43:07;20.66;66.03
65995;HTU21D;52764;51.036;5.852;2023-07-20T00:45:34;20.59;66.40
65995;HTU21D;52764;51.036;5.852;2023-07-20T00:48:02;20.54;66.60
65995;HTU21D;52764;51.036;5.852;2023-07-20T00:50:29;20.51;66.76
65995;HTU21D;52764;51.036;5.852;2023-07-20T00:52:56;20.49;66.87
65995;HTU21D;52764;51.036;5.852;2023-07-20T00:55:23;20.46;66.96
65995;HTU21D;52764;51.036;5.852;2023-07-20T00:57:50;20.43;67.09
65995;HTU21D;52764;51.036;5.852;2023-07-20T01:00:16;20.41;67.20
65995;HTU21D;52764;51.036;5.852;2023-07-20T01:02:43;20.39;67.27
65995;HTU21D;52764;51.036;5.852;2023-07-20T01:05:09;20.34;67.36
65995;HTU21D;52764;51.036;5.852;2023-07-20T01:08:03;20.29;67.55
65995;HTU21D;52764;51.036;5.852;2023-07-20T01:10:53;20.24;67.80
65995;HTU21D;52764;51.036;5.852;2023-07-20T01:13:22;20.20;68.10
65995;HTU21D;52764;51.036;5.852;2023-07-20T01:15:57;20.17;68.18
65995;HTU21D;52764;51.036;5.852;2023-07-20T01:18:26;20.20;68.20
65995;HTU21D;52764;51.036;5.852;2023-07-20T01:20:59;20.20;68.34
65995;HTU21D;52764;51.036;5.852;2023-07-20T01:23:49;20.24;68.36
65995;HTU21D;52764;51.036;5.852;2023-07-20T01:30:00;20.16;68.52
65995;HTU21D;52764;51.036;5.852;2023-07-20T01:32:31;20.14;68.66
65995;HTU21D;52764;51.036;5.852;2023-07-20T01:34:59;20.16;68.71
65995;HTU21D;52764;51.036;5.852;2023-07-20T01:37:28;20.21;68.63
65995;HTU21D;52764;51.036;5.852;2023-07-20T01:39:55;20.26;68.39
65995;HTU21D;52764;51.036;5.852;2023-07-20T01:42:22;20.30;68.13
65995;HTU21D;52764;51.036;5.852;2023-07-20T01:44:52;20.42;67.72
65995;HTU21D;52764;51.036;5.852;2023-07-20T01:47:19;20.37;67.87
65995;HTU21D;52764;51.036;5.852;2023-07-20T01:49:45;20.40;67.77
65995;HTU21D;52764;51.036;5.852;2023-07-20T01:52:11;20.40;67.74
65995;HTU21D;52764;51.036;5.852;2023-07-20T01:54:37;20.40;67.88
65995;HTU21D;52764;51.036;5.852;2023-07-20T01:57:03;20.41;67.74
65995;HTU21D;52764;51.036;5.852;2023-07-20T01:59:29;20.44;67.55
65995;HTU21D;52764;51.036;5.852;2023-07-20T02:01:55;20.45;67.39
65995;HTU21D;52764;51.036;5.852;2023-07-20T02:04:21;20.45;67.35
65995;HTU21D;52764;51.036;5.852;2023-07-20T02:06:46;20.44;67.33
65995;HTU21D;52764;51.036;5.852;2023-07-20T02:09:12;20.45;67.25
65995;HTU21D;52764;51.036;5.852;2023-07-20T02:11:38;20.44;67.18
65995;HTU21D;52764;51.036;5.852;2023-07-20T02:14:03;20.42;67.20
65995;HTU21D;52764;51.036;5.852;2023-07-20T02:16:29;20.39;67.27
65995;HTU21D;52764;51.036;5.852;2023-07-20T02:18:56;20.34;67.28
65995;HTU21D;52764;51.036;5.852;2023-07-20T02:21:22;20.28;67.42
65995;HTU21D;52764;51.036;5.852;2023-07-20T02:23:48;20.25;67.42
65995;HTU21D;52764;51.036;5.852;2023-07-20T02:26:14;20.18;67.41
65995;HTU21D;52764;51.036;5.852;2023-07-20T02:28:40;20.12;67.54
65995;HTU21D;52764;51.036;5.852;2023-07-20T02:31:07;20.05;67.68
65995;HTU21D;52764;51.036;5.852;2023-07-20T02:33:32;19.97;67.89
65995;HTU21D;52764;51.036;5.852;2023-07-20T02:35:58;19.89;68.04
65995;HTU21D;52764;51.036;5.852;2023-07-20T02:38:24;19.82;68.32
65995;HTU21D;52764;51.036;5.852;2023-07-20T02:40:50;19.77;68.41
65995;HTU21D;52764;51.036;5.852;2023-07-20T02:43:17;19.70;68.56
65995;HTU21D;52764;51.036;5.852;2023-07-20T02:45:43;19.65;68.71
65995;HTU21D;52764;51.036;5.852;2023-07-20T02:48:09;19.60;68.91
65995;HTU21D;52764;51.036;5.852;2023-07-20T02:50:34;19.58;68.97
65995;HTU21D;52764;51.036;5.852;2023-07-20T02:53:01;19.57;68.97
65995;HTU21D;52764;51.036;5.852;2023-07-20T02:55:26;19.57;69.06
65995;HTU21D;52764;51.036;5.852;2023-07-20T02:57:52;19.58;69.23
65995;HTU21D;52764;51.036;5.852;2023-07-20T03:00:18;19.65;69.10
65995;HTU21D;52764;51.036;5.852;2023-07-20T03:02:46;19.70;68.94
65995;HTU21D;52764;51.036;5.852;2023-07-20T03:05:16;19.74;68.91
65995;HTU21D;52764;51.036;5.852;2023-07-20T03:07:42;19.76;68.73
65995;HTU21D;52764;51.036;5.852;2023-07-20T03:10:09;19.74;68.63
65995;HTU21D;52764;51.036;5.852;2023-07-20T03:12:35;19.72;68.65
65995;HTU21D;52764;51.036;5.852;2023-07-20T03:15:02;19.72;68.58
65995;HTU21D;52764;51.036;5.852;2023-07-20T03:17:28;19.71;68.65
65995;HTU21D;52764;51.036;5.852;2023-07-20T03:19:54;19.71;68.74
65995;HTU21D;52764;51.036;5.852;2023-07-20T03:22:21;19.73;68.70
65995;HTU21D;52764;51.036;5.852;2023-07-20T03:24:47;19.74;68.65
65995;HTU21D;52764;51.036;5.852;2023-07-20T03:27:13;19.65;68.84
65995;HTU21D;52764;51.036;5.852;2023-07-20T03:29:39;19.63;68.97
65995;HTU21D;52764;51.036;5.852;2023-07-20T03:32:05;19.57;69.17
65995;HTU21D;52764;51.036;5.852;2023-07-20T03:34:31;19.53;69.45
65995;HTU21D;52764;51.036;5.852;2023-07-20T03:36:57;19.59;69.39
65995;HTU21D;52764;51.036;5.852;2023-07-20T03:39:23;19.62;69.22
65995;HTU21D;52764;51.036;5.852;2023-07-20T03:41:48;19.67;69.16
65995;HTU21D;52764;51.036;5.852;2023-07-20T03:44:14;19.71;69.08
65995;HTU21D;52764;51.036;5.852;2023-07-20T03:46:40;19.76;68.86
65995;HTU21D;52764;51.036;5.852;2023-07-20T03:49:05;19.79;68.71
65995;HTU21D;52764;51.036;5.852;2023-07-20T03:51:32;19.79;68.82
65995;HTU21D;52764;51.036;5.852;2023-07-20T03:53:58;19.84;68.76
65995;HTU21D;52764;51.036;5.852;2023-07-20T03:56:23;19.88;68.53
65995;HTU21D;52764;51.036;5.852;2023-07-20T03:58:50;19.90;68.39
65995;HTU21D;52764;51.036;5.852;2023-07-20T04:01:16;19.94;68.42
65995;HTU21D;52764;51.036;5.852;2023-07-20T04:03:42;19.97;68.35
65995;HTU21D;52764;51.036;5.852;2023-07-20T04:06:08;19.98;68.30
65995;HTU21D;52764;51.036;5.852;2023-07-20T04:08:35;20.00;68.22
65995;HTU21D;52764;51.036;5.852;2023-07-20T04:11:02;20.00;68.30
65995;HTU21D;52764;51.036;5.852;2023-07-20T04:13:27;20.03;68.28
65995;HTU21D;52764;51.036;5.852;2023-07-20T04:15:54;20.12;67.99
65995;HTU21D;52764;51.036;5.852;2023-07-20T04:18:20;20.18;67.74
65995;HTU21D;52764;51.036;5.852;2023-07-20T04:20:46;20.21;67.52
65995;HTU21D;52764;51.036;5.852;2023-07-20T04:23:12;20.01;67.52
65995;HTU21D;52764;51.036;5.852;2023-07-20T04:25:41;20.25;67.59
65995;HTU21D;52764;51.036;5.852;2023-07-20T04:28:09;20.29;67.51
65995;HTU21D;52764;51.036;5.852;2023-07-20T04:30:37;20.29;67.52
65995;HTU21D;52764;51.036;5.852;2023-07-20T04:33:06;20.30;67.53
65995;HTU21D;52764;51.036;5.852;2023-07-20T04:35:52;20.32;67.53
65995;HTU21D;52764;51.036;5.852;2023-07-20T04:38:27;20.34;67.58
65995;HTU21D;52764;51.036;5.852;2023-07-20T04:41:09;20.35;67.54
65995;HTU21D;52764;51.036;5.852;2023-07-20T04:43:43;20.40;67.63
65995;HTU21D;52764;51.036;5.852;2023-07-20T04:46:12;20.55;67.70
65995;HTU21D;52764;51.036;5.852;2023-07-20T04:48:39;21.15;67.05
65995;HTU21D;52764;51.036;5.852;2023-07-20T04:51:06;21.60;64.69
65995;HTU21D;52764;51.036;5.852;2023-07-20T04:53:32;21.64;63.72
65995;HTU21D;52764;51.036;5.852;2023-07-20T04:55:58;21.62;63.50
65995;HTU21D;52764;51.036;5.852;2023-07-20T04:58:24;21.55;63.53
65995;HTU21D;52764;51.036;5.852;2023-07-20T05:00:52;21.50;63.62
65995;HTU21D;52764;51.036;5.852;2023-07-20T05:03:18;21.40;63.96
65995;HTU21D;52764;51.036;5.852;2023-07-20T05:05:44;21.33;64.27
65995;HTU21D;52764;51.036;5.852;2023-07-20T05:08:11;21.27;64.47
65995;HTU21D;52764;51.036;5.852;2023-07-20T05:10:37;21.22;64.79
65995;HTU21D;52764;51.036;5.852;2023-07-20T05:13:02;21.22;64.99
65995;HTU21D;52764;51.036;5.852;2023-07-20T05:15:28;21.21;65.00
65995;HTU21D;52764;51.036;5.852;2023-07-20T05:17:55;21.22;64.85
65995;HTU21D;52764;51.036;5.852;2023-07-20T05:20:22;21.21;64.91
65995;HTU21D;52764;51.036;5.852;2023-07-20T05:22:48;21.21;64.97
65995;HTU21D;52764;51.036;5.852;2023-07-20T05:25:13;21.19;65.08
65995;HTU21D;52764;51.036;5.852;2023-07-20T05:27:40;21.13;65.28
65995;HTU21D;52764;51.036;5.852;2023-07-20T05:30:06;21.09;65.42
65995;HTU21D;52764;51.036;5.852;2023-07-20T05:32:33;21.14;65.38
65995;HTU21D;52764;51.036;5.852;2023-07-20T05:34:59;23.31;65.30
65995;HTU21D;52764;51.036;5.852;2023-07-20T05:37:24;21.24;64.83
65995;HTU21D;52764;51.036;5.852;2023-07-20T05:39:50;21.38;64.70
65995;HTU21D;52764;51.036;5.852;2023-07-20T05:42:16;21.72;64.70
65995;HTU21D;52764;51.036;5.852;2023-07-20T05:44:42;22.49;63.63
65995;HTU21D;52764;51.036;5.852;2023-07-20T05:47:08;23.08;60.38
65995;HTU21D;52764;51.036;5.852;2023-07-20T05:49:36;23.10;58.52
65995;HTU21D;52764;51.036;5.852;2023-07-20T05:52:02;22.95;58.58
65995;HTU21D;52764;51.036;5.852;2023-07-20T05:54:28;22.82;58.88
65995;HTU21D;52764;51.036;5.852;2023-07-20T05:56:54;22.68;59.53
65995;HTU21D;52764;51.036;5.852;2023-07-20T05:59:20;22.63;59.93
65995;HTU21D;52764;51.036;5.852;2023-07-20T06:01:46;22.66;59.61
65995;HTU21D;52764;51.036;5.852;2023-07-20T06:04:14;22.65;59.38
65995;HTU21D;52764;51.036;5.852;2023-07-20T06:06:39;22.65;59.25
65995;HTU21D;52764;51.036;5.852;2023-07-20T06:09:05;22.71;59.06
65995;HTU21D;52764;51.036;5.852;2023-07-20T06:11:35;22.90;59.55
65995;HTU21D;52764;51.036;5.852;2023-07-20T06:14:01;23.62;59.17
65995;HTU21D;52764;51.036;5.852;2023-07-20T06:16:27;24.35;56.69
65995;HTU21D;52764;51.036;5.852;2023-07-20T06:18:53;24.64;54.18
65995;HTU21D;52764;51.036;5.852;2023-07-20T06:21:18;24.61;53.12
65995;HTU21D;52764;51.036;5.852;2023-07-20T06:23:44;24.34;52.88
65995;HTU21D;52764;51.036;5.852;2023-07-20T06:26:10;24.03;53.89
65995;HTU21D;52764;51.036;5.852;2023-07-20T06:28:35;23.91;54.62
65995;HTU21D;52764;51.036;5.852;2023-07-20T06:31:03;23.73;54.81
65995;HTU21D;52764;51.036;5.852;2023-07-20T06:33:29;23.66;55.49
65995;HTU21D;52764;51.036;5.852;2023-07-20T06:35:55;24.29;55.58
65995;HTU21D;52764;51.036;5.852;2023-07-20T06:38:22;25.10;52.98
65995;HTU21D;52764;51.036;5.852;2023-07-20T06:40:50;25.61;51.16
65995;HTU21D;52764;51.036;5.852;2023-07-20T06:43:16;25.89;50.37
65995;HTU21D;52764;51.036;5.852;2023-07-20T06:45:42;26.16;49.47
65995;HTU21D;52764;51.036;5.852;2023-07-20T06:48:08;26.52;48.91
65995;HTU21D;52764;51.036;5.852;2023-07-20T06:50:34;27.11;47.94
65995;HTU21D;52764;51.036;5.852;2023-07-20T06:53:00;27.96;46.23
65995;HTU21D;52764;51.036;5.852;2023-07-20T06:55:28;28.95;44.16
65995;HTU21D;52764;51.036;5.852;2023-07-20T06:57:54;18.79;41.88
65995;HTU21D;52764;51.036;5.852;2023-07-20T07:00:20;30.37;39.80
65995;HTU21D;52764;51.036;5.852;2023-07-20T07:02:46;30.54;39.30
65995;HTU21D;52764;51.036;5.852;2023-07-20T07:05:11;30.82;38.27
65995;HTU21D;52764;51.036;5.852;2023-07-20T07:07:39;31.02;37.30
65995;HTU21D;52764;51.036;5.852;2023-07-20T07:10:05;31.31;36.37
65995;HTU21D;52764;51.036;5.852;2023-07-20T07:12:31;31.02;35.63
65995;HTU21D;52764;51.036;5.852;2023-07-20T07:14:57;30.36;36.14
65995;HTU21D;52764;51.036;5.852;2023-07-20T07:17:23;29.70;37.95
65995;HTU21D;52764;51.036;5.852;2023-07-20T07:19:48;29.02;39.85
65995;HTU21D;52764;51.036;5.852;2023-07-20T07:22:14;28.29;40.62
65995;HTU21D;52764;51.036;5.852;2023-07-20T07:24:40;28.04;41.57
65995;HTU21D;52764;51.036;5.852;2023-07-20T07:27:08;27.66;42.36
65995;HTU21D;52764;51.036;5.852;2023-07-20T07:29:34;27.28;43.42
65995;HTU21D;52764;51.036;5.852;2023-07-20T07:32:00;27.01;44.13
65995;HTU21D;52764;51.036;5.852;2023-07-20T07:34:27;26.89;44.43
65995;HTU21D;52764;51.036;5.852;2023-07-20T07:36:53;26.78;44.89
65995;HTU21D;52764;51.036;5.852;2023-07-20T07:39:19;26.95;45.22
65995;HTU21D;52764;51.036;5.852;2023-07-20T07:41:45;27.65;44.59
65995;HTU21D;52764;51.036;5.852;2023-07-20T07:44:10;28.57;42.10
65995;HTU21D;52764;51.036;5.852;2023-07-20T07:46:37;29.37;39.55
65995;HTU21D;52764;51.036;5.852;2023-07-20T07:49:02;29.60;38.72
65995;HTU21D;52764;51.036;5.852;2023-07-20T07:51:29;30.18;38.74
65995;HTU21D;52764;51.036;5.852;2023-07-20T07:53:55;31.02;36.76
65995;HTU21D;52764;51.036;5.852;2023-07-20T07:56:20;31.57;36.96
65995;HTU21D;52764;51.036;5.852;2023-07-20T07:58:49;32.10;33.51
65995;HTU21D;52764;51.036;5.852;2023-07-20T08:01:17;32.43;32.86
65995;HTU21D;52764;51.036;5.852;2023-07-20T08:03:45;32.46;31.61
65995;HTU21D;52764;51.036;5.852;2023-07-20T08:06:15;31.66;32.35
65995;HTU21D;52764;51.036;5.852;2023-07-20T08:08:41;30.93;33.43
65995;HTU21D;52764;51.036;5.852;2023-07-20T08:11:10;30.27;34.48
65995;HTU21D;52764;51.036;5.852;2023-07-20T08:13:36;29.81;35.85
65995;HTU21D;52764;51.036;5.852;2023-07-20T08:16:02;29.54;36.63
65995;HTU21D;52764;51.036;5.852;2023-07-20T08:18:28;29.35;37.83
65995;HTU21D;52764;51.036;5.852;2023-07-20T08:20:54;29.26;38.35
65995;HTU21D;52764;51.036;5.852;2023-07-20T08:23:20;29.30;38.19
65995;HTU21D;52764;51.036;5.852;2023-07-20T08:25:46;29.15;38.32
65995;HTU21D;52764;51.036;5.852;2023-07-20T08:28:16;29.31;38.25
65995;HTU21D;52764;51.036;5.852;2023-07-20T08:30:44;30.11;37.14
65995;HTU21D;52764;51.036;5.852;2023-07-20T08:33:12;30.87;35.15
65995;HTU21D;52764;51.036;5.852;2023-07-20T08:35:38;31.52;33.93
65995;HTU21D;52764;51.036;5.852;2023-07-20T08:38:04;31.96;32.69
65995;HTU21D;52764;51.036;5.852;2023-07-20T08:40:40;32.24;32.42
65995;HTU21D;52764;51.036;5.852;2023-07-20T08:43:07;32.60;8.38
65995;HTU21D;52764;51.036;5.852;2023-07-20T08:45:34;32.82;31.35
65995;HTU21D;52764;51.036;5.852;2023-07-20T08:48:01;32.19;31.48
65995;HTU21D;52764;51.036;5.852;2023-07-20T08:50:31;31.45;32.28
65995;HTU21D;52764;51.036;5.852;2023-07-20T08:52:58;30.60;33.63
65995;HTU21D;52764;51.036;5.852;2023-07-20T08:55:26;30.10;35.39
65995;HTU21D;52764;51.036;5.852;2023-07-20T08:57:56;30.54;34.52
65995;HTU21D;52764;51.036;5.852;2023-07-20T09:00:24;31.36;33.03
65995;HTU21D;52764;51.036;5.852;2023-07-20T09:02:51;32.44;31.26
65995;HTU21D;52764;51.036;5.852;2023-07-20T09:05:18;32.97;28.80
65995;HTU21D;52764;51.036;5.852;2023-07-20T09:07:44;32.84;29.05
65995;HTU21D;52764;51.036;5.852;2023-07-20T09:10:10;32.39;29.26
65995;HTU21D;52764;51.036;5.852;2023-07-20T09:12:42;32.11;30.04
65995;HTU21D;52764;51.036;5.852;2023-07-20T09:15:10;31.64;31.21
65995;HTU21D;52764;51.036;5.852;2023-07-20T09:17:36;31.16;32.41
65995;HTU21D;52764;51.036;5.852;2023-07-20T09:20:05;31.44;33.51
65995;HTU21D;52764;51.036;5.852;2023-07-20T09:22:34;30.25;34.41
65995;HTU21D;52764;51.036;5.852;2023-07-20T09:25:00;29.88;35.12
65995;HTU21D;52764;51.036;5.852;2023-07-20T09:27:38;29.66;35.82
65995;HTU21D;52764;51.036;5.852;2023-07-20T09:30:05;29.48;35.38
65995;HTU21D;52764;51.036;5.852;2023-07-20T09:32:39;29.32;36.14
65995;HTU21D;52764;51.036;5.852;2023-07-20T09:35:06;29.45;36.07
65995;HTU21D;52764;51.036;5.852;2023-07-20T09:37:33;29.50;34.25
65995;HTU21D;52764;51.036;5.852;2023-07-20T09:39:59;29.23;34.19
65995;HTU21D;52764;51.036;5.852;2023-07-20T09:42:26;29.05;34.71
65995;HTU21D;52764;51.036;5.852;2023-07-20T09:44:53;29.12;35.01
65995;HTU21D;52764;51.036;5.852;2023-07-20T09:47:22;29.26;33.67
65995;HTU21D;52764;51.036;5.852;2023-07-20T09:49:48;29.28;33.91
65995;HTU21D;52764;51.036;5.852;2023-07-20T09:52:15;29.26;34.02
65995;HTU21D;52764;51.036;5.852;2023-07-20T09:54:44;29.41;34.25
65995;HTU21D;52764;51.036;5.852;2023-07-20T09:57:11;29.70;33.79
65995;HTU21D;52764;51.036;5.852;2023-07-20T09:59:39;29.83;32.89
65995;HTU21D;52764;51.036;5.852;2023-07-20T10:02:20;29.72;32.80
65995;HTU21D;52764;51.036;5.852;2023-07-20T10:04:52;29.73;33.48
65995;HTU21D;52764;51.036;5.852;2023-07-20T10:07:19;29.54;33.60
65995;HTU21D;52764;51.036;5.852;2023-07-20T10:09:51;29.36;34.52
65995;HTU21D;52764;51.036;5.852;2023-07-20T10:12:22;29.36;34.97
65995;HTU21D;52764;51.036;5.852;2023-07-20T10:15:12;29.53;34.75
65995;HTU21D;52764;51.036;5.852;2023-07-20T10:17:49;29.57;34.33
65995;HTU21D;52764;51.036;5.852;2023-07-20T10:20:19;29.64;34.09
65995;HTU21D;52764;51.036;5.852;2023-07-20T10:22:49;29.70;33.63
65995;HTU21D;52764;51.036;5.852;2023-07-20T10:25:21;29.32;33.86
65995;HTU21D;52764;51.036;5.852;2023-07-20T10:27:48;29.03;34.86
65995;HTU21D;52764;51.036;5.852;2023-07-20T10:30:14;28.88;35.28
65995;HTU21D;52764;51.036;5.852;2023-07-20T10:32:42;28.91;35.20
65995;HTU21D;52764;51.036;5.852;2023-07-20T10:35:13;29.01;34.89
65995;HTU21D;52764;51.036;5.852;2023-07-20T10:40:38;29.18;34.70
65995;HTU21D;52764;51.036;5.852;2023-07-20T10:43:09;29.43;34.57
65995;HTU21D;52764;51.036;5.852;2023-07-20T10:48:05;29.30;34.46
65995;HTU21D;52764;51.036;5.852;2023-07-20T10:50:34;29.21;34.33
65995;HTU21D;52764;51.036;5.852;2023-07-20T10:53:14;29.17;34.30
65995;HTU21D;52764;51.036;5.852;2023-07-20T10:55:41;29.21;33.99
65995;HTU21D;52764;51.036;5.852;2023-07-20T10:58:11;29.14;33.93
65995;HTU21D;52764;51.036;5.852;2023-07-20T11:00:44;29.17;34.67
65995;HTU21D;52764;51.036;5.852;2023-07-20T11:03:27;29.30;34.80
65995;HTU21D;52764;51.036;5.852;2023-07-20T11:05:53;29.33;34.33
65995;HTU21D;52764;51.036;5.852;2023-07-20T11:08:41;29.32;34.52
65995;HTU21D;52764;51.036;5.852;2023-07-20T11:11:30;29.29;34.05
65995;HTU21D;52764;51.036;5.852;2023-07-20T11:14:01;29.36;33.55
65995;HTU21D;52764;51.036;5.852;2023-07-20T11:16:44;29.24;33.32
65995;HTU21D;52764;51.036;5.852;2023-07-20T11:19:25;29.04;33.81
65995;HTU21D;52764;51.036;5.852;2023-07-20T11:21:53;28.87;34.46
65995;HTU21D;52764;51.036;5.852;2023-07-20T11:24:19;28.89;34.73
65995;HTU21D;52764;51.036;5.852;2023-07-20T11:26:47;29.09;34.83
65995;HTU21D;52764;51.036;5.852;2023-07-20T11:29:15;29.24;33.68
65995;HTU21D;52764;51.036;5.852;2023-07-20T11:31:42;29.35;33.41
65995;HTU21D;52764;51.036;5.852;2023-07-20T11:34:18;29.37;33.14
65995;HTU21D;52764;51.036;5.852;2023-07-20T11:36:49;29.36;33.16
65995;HTU21D;52764;51.036;5.852;2023-07-20T11:39:17;29.50;33.37
65995;HTU21D;52764;51.036;5.852;2023-07-20T11:41:50;29.56;33.45
65995;HTU21D;52764;51.036;5.852;2023-07-20T11:44:17;29.47;33.76
65995;HTU21D;52764;51.036;5.852;2023-07-20T11:46:44;17.80;33.20
65995;HTU21D;52764;51.036;5.852;2023-07-20T11:49:11;29.35;32.95
65995;HTU21D;52764;51.036;5.852;2023-07-20T11:51:39;29.37;32.76
65995;HTU21D;52764;51.036;5.852;2023-07-20T11:54:08;29.48;32.51
65995;HTU21D;52764;51.036;5.852;2023-07-20T11:56:34;29.50;32.34
65995;HTU21D;52764;51.036;5.852;2023-07-20T11:59:01;29.39;32.37
65995;HTU21D;52764;51.036;5.852;2023-07-20T12:01:29;29.36;32.72
65995;HTU21D;52764;51.036;5.852;2023-07-20T12:04:01;29.29;32.48
65995;HTU21D;52764;51.036;5.852;2023-07-20T12:06:29;29.22;32.53
65995;HTU21D;52764;51.036;5.852;2023-07-20T12:08:57;29.12;32.66
65995;HTU21D;52764;51.036;5.852;2023-07-20T12:11:36;29.08;32.80
65995;HTU21D;52764;51.036;5.852;2023-07-20T12:14:07;28.98;32.38
65995;HTU21D;52764;51.036;5.852;2023-07-20T12:16:34;28.94;32.99
65995;HTU21D;52764;51.036;5.852;2023-07-20T12:19:04;29.03;32.71
65995;HTU21D;52764;51.036;5.852;2023-07-20T12:21:32;29.17;32.60
65995;HTU21D;52764;51.036;5.852;2023-07-20T12:23:59;29.30;32.35
65995;HTU21D;52764;51.036;5.852;2023-07-20T12:26:25;29.37;32.36
65995;HTU21D;52764;51.036;5.852;2023-07-20T12:28:52;29.41;32.45
65995;HTU21D;52764;51.036;5.852;2023-07-20T12:31:18;29.49;32.09
65995;HTU21D;52764;51.036;5.852;2023-07-20T12:33:44;29.59;31.97
65995;HTU21D;52764;51.036;5.852;2023-07-20T12:36:10;29.65;31.70
65995;HTU21D;52764;51.036;5.852;2023-07-20T12:38:36;29.67;30.93
65995;HTU21D;52764;51.036;5.852;2023-07-20T12:41:03;29.57;31.32
65995;HTU21D;52764;51.036;5.852;2023-07-20T12:43:29;29.59;30.74
65995;HTU21D;52764;51.036;5.852;2023-07-20T12:45:55;29.58;30.41
65995;HTU21D;52764;51.036;5.852;2023-07-20T12:48:22;29.64;30.51
65995;HTU21D;52764;51.036;5.852;2023-07-20T12:50:48;29.68;35.76
65995;HTU21D;52764;51.036;5.852;2023-07-20T12:53:14;29.61;31.06
65995;HTU21D;52764;51.036;5.852;2023-07-20T12:55:40;29.58;31.47
65995;HTU21D;52764;51.036;5.852;2023-07-20T12:58:11;29.41;31.50
65995;HTU21D;52764;51.036;5.852;2023-07-20T13:00:37;29.39;31.63
65995;HTU21D;52764;51.036;5.852;2023-07-20T13:03:02;29.48;31.43
65995;HTU21D;52764;51.036;5.852;2023-07-20T13:05:32;29.58;30.96
65995;HTU21D;52764;51.036;5.852;2023-07-20T13:07:59;29.64;31.32
65995;HTU21D;52764;51.036;5.852;2023-07-20T13:10:24;29.61;30.99
65995;HTU21D;52764;51.036;5.852;2023-07-20T13:12:50;29.63;30.76
65995;HTU21D;52764;51.036;5.852;2023-07-20T13:15:17;29.60;30.48
65995;HTU21D;52764;51.036;5.852;2023-07-20T13:17:43;29.39;30.60
65995;HTU21D;52764;51.036;5.852;2023-07-20T13:20:10;29.33;30.81
65995;HTU21D;52764;51.036;5.852;2023-07-20T13:22:40;29.30;31.02
65995;HTU21D;52764;51.036;5.852;2023-07-20T13:25:07;29.26;31.12
65995;HTU21D;52764;51.036;5.852;2023-07-20T13:27:35;29.12;30.86
65995;HTU21D;52764;51.036;5.852;2023-07-20T13:30:02;28.95;31.13
65995;HTU21D;52764;51.036;5.852;2023-07-20T13:32:32;28.73;31.72
65995;HTU21D;52764;51.036;5.852;2023-07-20T13:34:58;28.62;31.99
65995;HTU21D;52764;51.036;5.852;2023-07-20T13:37:24;28.56;31.76
65995;HTU21D;52764;51.036;5.852;2023-07-20T13:39:49;28.46;31.54
65995;HTU21D;52764;51.036;5.852;2023-07-20T13:42:15;28.46;31.96
65995;HTU21D;52764;51.036;5.852;2023-07-20T13:44:41;28.49;31.96
65995;HTU21D;52764;51.036;5.852;2023-07-20T13:47:07;28.54;31.99
65995;HTU21D;52764;51.036;5.852;2023-07-20T13:49:32;28.61;31.28
65995;HTU21D;52764;51.036;5.852;2023-07-20T13:51:59;28.74;32.35
65995;HTU21D;52764;51.036;5.852;2023-07-20T13:54:25;28.79;37.69
65995;HTU21D;52764;51.036;5.852;2023-07-20T13:56:51;28.77;31.64
65995;HTU21D;52764;51.036;5.852;2023-07-20T13:59:17;28.78;31.84
65995;HTU21D;52764;51.036;5.852;2023-07-20T14:01:43;28.88;31.35
65995;HTU21D;52764;51.036;5.852;2023-07-20T14:04:09;29.01;31.38
65995;HTU21D;52764;51.036;5.852;2023-07-20T14:06:35;29.12;30.99
65995;HTU21D;52764;51.036;5.852;2023-07-20T14:09:02;29.11;30.96
65995;HTU21D;52764;51.036;5.852;2023-07-20T14:11:29;29.08;31.40
65995;HTU21D;52764;51.036;5.852;2023-07-20T14:13:55;29.05;31.72
65995;HTU21D;52764;51.036;5.852;2023-07-20T14:16:21;29.07;32.50
65995;HTU21D;52764;51.036;5.852;2023-07-20T14:18:47;29.14;32.02
65995;HTU21D;52764;51.036;5.852;2023-07-20T14:21:15;29.13;31.62
65995;HTU21D;52764;51.036;5.852;2023-07-20T14:23:40;29.15;31.81
65995;HTU21D;52764;51.036;5.852;2023-07-20T14:26:06;29.20;31.59
65995;HTU21D;52764;51.036;5.852;2023-07-20T14:28:35;29.16;30.72
65995;HTU21D;52764;51.036;5.852;2023-07-20T14:31:00;29.04;31.06
65995;HTU21D;52764;51.036;5.852;2023-07-20T14:33:26;29.07;31.16
65995;HTU21D;52764;51.036;5.852;2023-07-20T14:35:52;29.02;30.95
65995;HTU21D;52764;51.036;5.852;2023-07-20T14:38:17;29.06;31.48
65995;HTU21D;52764;51.036;5.852;2023-07-20T14:40:43;29.00;31.73
65995;HTU21D;52764;51.036;5.852;2023-07-20T14:43:10;29.04;31.46
65995;HTU21D;52764;51.036;5.852;2023-07-20T14:45:36;28.89;31.72
65995;HTU21D;52764;51.036;5.852;2023-07-20T14:48:03;28.85;32.19
65995;HTU21D;52764;51.036;5.852;2023-07-20T14:50:29;28.83;32.00
65995;HTU21D;52764;51.036;5.852;2023-07-20T14:52:55;28.82;31.48
65995;HTU21D;52764;51.036;5.852;2023-07-20T14:55:21;28.93;31.22
65995;HTU21D;52764;51.036;5.852;2023-07-20T14:57:48;28.99;31.41
65995;HTU21D;52764;51.036;5.852;2023-07-20T15:00:14;29.01;30.94
65995;HTU21D;52764;51.036;5.852;2023-07-20T15:02:40;29.12;30.48
65995;HTU21D;52764;51.036;5.852;2023-07-20T15:05:10;29.24;29.77
65995;HTU21D;52764;51.036;5.852;2023-07-20T15:07:36;29.34;29.75
65995;HTU21D;52764;51.036;5.852;2023-07-20T15:10:06;29.28;29.87
65995;HTU21D;52764;51.036;5.852;2023-07-20T15:12:32;29.27;29.97
65995;HTU21D;52764;51.036;5.852;2023-07-20T15:17:35;28.93;29.84
65995;HTU21D;52764;51.036;5.852;2023-07-20T15:20:03;28.85;30.00
65995;HTU21D;52764;51.036;5.852;2023-07-20T15:22:33;28.78;30.32
65995;HTU21D;52764;51.036;5.852;2023-07-20T15:24:59;28.79;30.27
65995;HTU21D;52764;51.036;5.852;2023-07-20T15:27:26;28.83;30.55
65995;HTU21D;52764;51.036;5.852;2023-07-20T15:29:51;28.92;30.64